Arlington, Nebraska
Current Conditions -  °F | °C
As of 9:35 AM on Friday 24 Oct 2014 (Local Time) from KFET Reporting Station
Haze Haze  
Wind Chill: 62°   Ceiling: Unl
Heat Index: 62°   Visibility: 5mi
Dew Point: 58°   Wind: 3mph
Humidity: 89%   Direction: 200°SSW
Pressure: 29.93"   Gusts: NA
Location:  41.45°N, 96.35°W
Report Text: KFET 241435Z AUTO 20003KT 5SM BR CLR 17/15 A2993 RMK AO2 T01650146
Loading
Personal Weather Stations






























Interactive Weather Map
Tropical Storm Tracking
New forecast layout! Learn more

10-Day Weather Forecast

Advertisements
Track Severe Weather on mobile